Time;durP1;ratioP1;P1;durP2;ratioP2;P2;SDS_P1;SDS_P2;PMS_P1;PMS_P2;Temp;Humidity;BMP_temperature;BMP_pressure;BME280_temperature;BME280_humidity;BME280_pressure;Samples;Min_cycle;Max_cycle;Signal;HPM_P1;HPM_P2
2023/04/24 00:02:00;;;;;;;4.87;1.80;;;16.70;70.70;;;;;;5016167;28;20218;-70
2023/04/24 00:04:27;;;;;;;4.97;2.43;;;16.70;71.20;;;;;;5007860;28;20205;-69
2023/04/24 00:06:56;;;;;;;7.70;2.00;;;16.80;71.70;;;;;;5001845;28;20267;-70
2023/04/24 00:09:24;;;;;;;7.70;2.00;;;16.70;71.80;;;;;;5011075;28;20205;-69
2023/04/24 00:11:51;;;;;;;4.83;1.87;;;16.70;72.40;;;;;;5008532;28;20241;-69
2023/04/24 00:14:19;;;;;;;3.43;2.13;;;16.70;72.50;;;;;;5005735;28;20236;-70
2023/04/24 00:16:46;;;;;;;4.83;2.20;;;16.70;72.70;;;;;;5006797;28;20623;-71
2023/04/24 00:19:13;;;;;;;3.40;2.30;;;16.60;72.40;;;;;;5017022;28;20623;-69
2023/04/24 00:21:41;;;;;;;7.03;2.20;;;16.60;72.40;;;;;;5011897;28;20202;-70
2023/04/24 00:24:09;;;;;;;5.97;2.20;;;16.50;72.30;;;;;;5006575;28;20223;-70
2023/04/24 00:26:35;;;;;;;2.77;2.10;;;16.50;72.70;;;;;;5009389;28;20202;-70
2023/04/24 00:29:02;;;;;;;5.40;2.13;;;16.50;73.20;;;;;;5002269;28;20209;-70
2023/04/24 00:31:29;;;;;;;5.77;2.30;;;16.50;73.40;;;;;;5001090;28;20241;-70
2023/04/24 00:33:58;;;;;;;5.80;2.40;;;16.50;72.90;;;;;;5014804;28;20203;-73
2023/04/24 00:36:25;;;;;;;6.20;1.90;;;16.40;73.40;;;;;;5009713;28;20227;-69
2023/04/24 00:38:52;;;;;;;6.63;2.30;;;16.40;74.30;;;;;;5002978;28;20196;-70
2023/04/24 00:41:19;;;;;;;3.93;1.93;;;16.40;75.20;;;;;;5002339;28;20769;-70
2023/04/24 00:43:46;;;;;;;2.73;2.10;;;16.40;75.80;;;;;;5002506;28;20233;-70
2023/04/24 00:46:14;;;;;;;4.87;2.77;;;16.40;76.30;;;;;;5003674;28;20328;-70
2023/04/24 00:48:41;;;;;;;5.60;2.70;;;16.40;76.80;;;;;;5011001;28;20201;-70
2023/04/24 00:51:08;;;;;;;4.63;2.03;;;16.40;77.10;;;;;;5009823;28;20232;-70
2023/04/24 00:53:35;;;;;;;5.50;2.17;;;16.30;76.80;;;;;;5005123;28;20201;-70
2023/04/24 00:56:02;;;;;;;1.93;1.70;;;16.30;76.60;;;;;;5009249;28;20198;-70
2023/04/24 00:58:31;;;;;;;3.40;2.07;;;16.30;76.60;;;;;;5009201;28;20198;-70
2023/04/24 01:01:00;;;;;;;5.97;1.90;;;16.30;76.80;;;;;;5013404;28;20207;-70
2023/04/24 01:03:31;;;;;;;3.50;2.57;;;16.30;77.10;;;;;;5008838;28;20208;-70
2023/04/24 01:05:59;;;;;;;2.20;1.93;;;16.20;77.70;;;;;;5011205;28;20253;-69
2023/04/24 01:08:27;;;;;;;2.83;2.30;;;16.20;78.40;;;;;;5009447;28;20517;-70
2023/04/24 01:10:57;;;;;;;7.10;2.57;;;16.20;77.70;;;;;;5011509;28;20207;-70
2023/04/24 01:13:24;;;;;;;5.97;2.30;;;16.20;77.70;;;;;;5007637;28;20270;-70
2023/04/24 01:15:51;;;;;;;10.60;2.67;;;16.20;77.80;;;;;;5004163;28;20208;-70
2023/04/24 01:18:18;;;;;;;6.30;2.73;;;16.20;78.00;;;;;;5007306;28;20220;-70
2023/04/24 01:20:46;;;;;;;4.63;2.37;;;16.20;77.30;;;;;;5014754;28;20209;-70
2023/04/24 01:23:13;;;;;;;5.43;2.63;;;16.30;76.30;;;;;;5014257;28;20254;-70
2023/04/24 01:25:41;;;;;;;8.23;2.50;;;16.30;75.90;;;;;;5007212;28;20198;-69
2023/04/24 01:28:08;;;;;;;7.13;2.53;;;16.30;76.20;;;;;;5007853;28;20651;-70
2023/04/24 01:30:35;;;;;;;3.43;2.27;;;16.30;76.30;;;;;;5007186;28;20251;-70
2023/04/24 01:33:02;;;;;;;7.30;2.80;;;16.40;76.30;;;;;;5013585;28;20247;-70
2023/04/24 01:35:30;;;;;;;4.73;2.33;;;16.50;75.80;;;;;;5010430;28;20661;-70
2023/04/24 01:37:57;;;;;;;6.97;2.47;;;16.50;75.40;;;;;;5013042;28;20201;-70
2023/04/24 01:40:24;;;;;;;4.00;2.40;;;16.50;76.20;;;;;;5007752;28;20207;-72
2023/04/24 01:42:51;;;;;;;6.47;2.33;;;16.50;77.10;;;;;;5011214;28;20329;-70
2023/04/24 01:45:18;;;;;;;2.23;1.90;;;16.50;77.60;;;;;;5007002;28;20240;-70
2023/04/24 01:47:46;;;;;;;2.70;1.93;;;16.60;78.30;;;;;;5004312;28;20593;-70
2023/04/24 01:50:13;;;;;;;2.03;1.93;;;16.60;78.80;;;;;;5006010;28;20545;-70
2023/04/24 01:52:40;;;;;;;5.40;2.37;;;16.60;79.10;;;;;;5007437;28;20224;-70
2023/04/24 01:55:09;;;;;;;5.07;2.50;;;16.50;79.10;;;;;;5005667;28;20275;-70
2023/04/24 01:57:37;;;;;;;3.03;2.23;;;16.50;79.30;;;;;;5004644;28;20199;-70
2023/04/24 02:00:06;;;;;;;3.93;2.87;;;16.50;79.80;;;;;;5004260;28;20894;-70
2023/04/24 02:02:40;;;;;;;4.77;2.90;;;16.40;80.20;;;;;;5003785;28;20204;-70
2023/04/24 02:05:10;;;;;;;2.97;2.47;;;16.50;80.80;;;;;;5037969;28;20550;-70
2023/04/24 02:07:37;;;;;;;4.40;2.30;;;16.40;81.20;;;;;;5003316;28;20210;-69
2023/04/24 02:10:05;;;;;;;5.20;2.87;;;16.40;81.60;;;;;;5007637;28;20204;-70
2023/04/24 02:12:32;;;;;;;3.17;2.47;;;16.40;81.60;;;;;;5010441;28;20261;-69
2023/04/24 02:14:59;;;;;;;7.23;2.97;;;16.40;81.80;;;;;;5012714;28;20212;-70
2023/04/24 02:17:26;;;;;;;3.37;2.77;;;16.40;82.20;;;;;;5013284;28;20885;-69
2023/04/24 02:19:53;;;;;;;8.33;3.03;;;16.30;82.30;;;;;;5006787;28;20223;-69
2023/04/24 02:22:20;;;;;;;3.10;2.80;;;16.30;82.30;;;;;;5007718;28;20206;-69
2023/04/24 02:24:47;;;;;;;6.30;3.67;;;16.20;82.50;;;;;;5016482;28;20216;-69
2023/04/24 02:27:15;;;;;;;5.23;2.90;;;16.30;83.00;;;;;;5010599;28;20641;-68
2023/04/24 02:29:42;;;;;;;5.60;3.10;;;16.30;83.20;;;;;;5003028;28;20617;-68
2023/04/24 02:32:12;;;;;;;4.67;2.70;;;16.20;83.20;;;;;;5005089;28;20685;-68
2023/04/24 02:34:39;;;;;;;3.63;3.13;;;16.30;83.00;;;;;;5006100;28;20192;-68
2023/04/24 02:37:06;;;;;;;5.63;3.50;;;16.20;83.00;;;;;;5001635;28;20265;-68
2023/04/24 02:39:33;;;;;;;4.87;3.23;;;16.20;83.80;;;;;;5001883;28;20207;-68
2023/04/24 02:42:01;;;;;;;3.63;3.23;;;16.20;84.50;;;;;;5007473;28;20240;-68
2023/04/24 02:44:29;;;;;;;6.27;3.23;;;16.20;85.00;;;;;;5042030;28;20201;-68
2023/04/24 02:46:56;;;;;;;7.77;3.97;;;16.20;85.20;;;;;;5003913;28;20240;-71
2023/04/24 02:49:23;;;;;;;7.03;3.60;;;16.10;85.50;;;;;;5018922;28;20228;-68
2023/04/24 02:51:50;;;;;;;4.00;3.47;;;16.10;85.90;;;;;;5003112;28;20223;-68
2023/04/24 02:54:17;;;;;;;4.47;3.30;;;16.10;86.50;;;;;;5007112;28;20206;-68
2023/04/24 02:56:44;;;;;;;6.20;3.60;;;16.00;87.00;;;;;;5012764;28;21082;-68
2023/04/24 02:59:11;;;;;;;6.37;3.50;;;16.00;86.80;;;;;;5011713;28;20637;-68
2023/04/24 03:01:38;;;;;;;7.20;3.83;;;15.90;86.80;;;;;;5010518;28;20544;-68
2023/04/24 03:04:05;;;;;;;5.83;4.17;;;15.90;87.30;;;;;;5002303;28;20206;-68
2023/04/24 03:06:35;;;;;;;6.33;3.70;;;15.80;87.80;;;;;;5008454;28;20653;-68
2023/04/24 03:09:03;;;;;;;6.33;3.27;;;15.80;88.10;;;;;;5014220;28;20283;-68
2023/04/24 03:11:31;;;;;;;5.47;3.53;;;15.90;88.40;;;;;;5004449;28;20254;-68
2023/04/24 03:13:58;;;;;;;9.80;5.07;;;15.90;88.40;;;;;;5009716;28;20323;-68
2023/04/24 03:16:25;;;;;;;10.70;5.30;;;15.80;88.00;;;;;;5006334;28;20540;-67
2023/04/24 03:18:54;;;;;;;10.47;4.93;;;15.80;88.00;;;;;;5006775;28;20210;-68
2023/04/24 03:21:24;;;;;;;8.73;4.90;;;15.80;88.20;;;;;;5008589;28;20829;-68
2023/04/24 03:23:51;;;;;;;6.13;4.97;;;15.70;88.60;;;;;;5002910;28;20198;-68
2023/04/24 03:26:18;;;;;;;5.37;4.50;;;15.70;88.80;;;;;;5015500;28;20204;-68
2023/04/24 03:29:00;;;;;;;7.00;5.37;;;15.70;89.00;;;;;;5045811;28;20208;-68
2023/04/24 03:31:27;;;;;;;8.33;5.17;;;15.70;89.10;;;;;;5015790;28;20196;-69
2023/04/24 03:33:54;;;;;;;7.47;5.67;;;15.70;89.30;;;;;;5009869;28;20252;-68
2023/04/24 03:36:21;;;;;;;6.73;6.03;;;15.70;89.50;;;;;;5012780;28;20197;-68
2023/04/24 03:38:48;;;;;;;7.87;5.90;;;15.60;89.60;;;;;;5010270;28;20205;-68
2023/04/24 03:41:41;;;;;;;7.87;6.10;;;15.60;89.80;;;;;;5009644;28;20245;-68
2023/04/24 03:44:18;;;;;;;8.83;6.30;;;15.60;89.90;;;;;;5010941;28;20585;-68
2023/04/24 03:46:45;;;;;;;10.50;6.57;;;15.60;90.40;;;;;;5037158;28;20254;-70
2023/04/24 03:49:12;;;;;;;9.53;6.83;;;15.60;90.20;;;;;;5015710;28;20652;-68
2023/04/24 03:51:42;;;;;;;7.50;6.23;;;15.60;90.30;;;;;;5012896;28;20207;-68
2023/04/24 03:54:17;;;;;;;8.33;6.87;;;15.60;90.80;;;;;;5011283;28;20209;-68
2023/04/24 03:56:45;;;;;;;10.70;7.33;;;15.50;90.90;;;;;;5004866;28;20295;-68
2023/04/24 03:59:13;;;;;;;9.00;8.00;;;15.50;91.10;;;;;;5005043;28;20203;-68
2023/04/24 04:01:43;;;;;;;12.57;9.00;;;15.40;91.30;;;;;;5038351;28;20598;-72
2023/04/24 04:04:16;;;;;;;19.20;8.67;;;15.30;91.60;;;;;;5011476;28;20244;-68
2023/04/24 04:06:46;;;;;;;12.70;8.00;;;15.30;91.90;;;;;;5033559;28;20255;-68
2023/04/24 04:09:13;;;;;;;11.60;10.23;;;15.30;91.90;;;;;;5011882;28;20265;-68
2023/04/24 04:11:41;;;;;;;10.70;9.63;;;15.20;91.90;;;;;;5012987;28;20207;-68
2023/04/24 04:14:08;;;;;;;11.67;10.23;;;15.20;92.40;;;;;;4999692;28;20193;-68
2023/04/24 04:16:39;;;;;;;16.40;12.27;;;15.30;92.50;;;;;;5022903;28;20219;-68
2023/04/24 04:19:07;;;;;;;19.17;12.83;;;15.30;92.50;;;;;;5014539;28;20209;-68
2023/04/24 04:21:34;;;;;;;17.10;13.10;;;15.30;92.70;;;;;;5012661;28;20197;-68
2023/04/24 04:24:11;;;;;;;21.23;14.83;;;15.30;92.80;;;;;;4997001;28;20641;-68
2023/04/24 04:26:46;;;;;;;17.40;14.27;;;15.30;92.90;;;;;;5009905;28;20236;-68
2023/04/24 04:29:27;;;;;;;20.53;15.67;;;15.30;93.10;;;;;;5043786;28;21150;-68
2023/04/24 04:31:55;;;;;;;17.13;14.23;;;15.40;93.30;;;;;;5014157;28;20337;-68
2023/04/24 04:34:23;;;;;;;19.93;14.80;;;15.40;93.40;;;;;;5009480;28;20302;-72
2023/04/24 04:36:50;;;;;;;18.30;14.03;;;15.50;93.50;;;;;;5020345;28;20215;-68
2023/04/24 04:39:50;;;;;;;19.93;15.43;;;15.50;93.60;;;;;;5011544;28;20209;-68
2023/04/24 04:42:20;;;;;;;24.10;15.63;;;15.50;93.70;;;;;;5014188;28;20530;-68
2023/04/24 04:44:50;;;;;;;24.03;17.67;;;15.50;93.80;;;;;;5022313;28;20213;-68
2023/04/24 04:47:26;;;;;;;21.33;16.50;;;15.60;93.90;;;;;;5035946;28;20231;-68
2023/04/24 04:49:55;;;;;;;22.63;16.27;;;15.50;94.00;;;;;;5035268;28;20240;-68
2023/04/24 04:52:26;;;;;;;20.23;16.57;;;15.60;94.10;;;;;;5005204;28;20676;-68
2023/04/24 04:55:21;;;;;;;21.60;17.20;;;15.60;94.10;;;;;;5035102;28;20219;-68
2023/04/24 04:58:09;;;;;;;23.77;19.13;;;15.70;94.20;;;;;;4999985;28;20554;-68
2023/04/24 05:00:37;;;;;;;27.77;19.50;;;15.70;94.20;;;;;;5014784;28;20622;-68
2023/04/24 05:03:23;;;;;;;28.83;21.03;;;15.70;94.30;;;;;;5000943;28;20211;-68
2023/04/24 05:05:59;;;;;;;27.70;20.73;;;15.80;94.40;;;;;;5010520;28;20208;-68
2023/04/24 05:08:29;;;;;;;25.33;19.93;;;15.80;94.50;;;;;;5019814;28;20200;-68
2023/04/24 05:10:56;;;;;;;28.73;19.93;;;15.90;94.60;;;;;;5007806;28;20206;-68
2023/04/24 05:13:26;;;;;;;24.80;20.60;;;15.90;94.70;;;;;;5037049;28;20563;-68
2023/04/24 05:16:14;;;;;;;29.30;21.33;;;15.90;94.70;;;;;;5017574;28;20198;-68
2023/04/24 05:18:42;;;;;;;29.73;22.83;;;16.00;94.70;;;;;;5040717;28;20228;-68
2023/04/24 05:21:12;;;;;;;29.93;22.53;;;16.00;94.70;;;;;;5005532;28;20654;-68
2023/04/24 05:23:43;;;;;;;27.23;21.00;;;16.00;94.70;;;;;;5011241;28;20224;-68
2023/04/24 05:26:14;;;;;;;29.23;23.60;;;16.10;94.70;;;;;;5007702;28;21312;-68
2023/04/24 05:28:41;;;;;;;28.00;22.23;;;16.10;94.70;;;;;;5012933;28;20224;-68
2023/04/24 05:31:12;;;;;;;27.90;23.03;;;16.10;94.70;;;;;;5008128;28;20267;-69
2023/04/24 05:33:39;;;;;;;27.27;22.07;;;16.10;94.90;;;;;;5001666;28;20224;-68
2023/04/24 05:36:06;;;;;;;27.90;21.50;;;16.10;94.90;;;;;;5006129;28;20270;-68
2023/04/24 05:38:33;;;;;;;31.13;22.57;;;16.10;94.90;;;;;;5025247;28;20205;-68
2023/04/24 05:41:01;;;;;;;28.37;21.83;;;16.10;94.80;;;;;;5001332;28;20204;-68
2023/04/24 05:43:28;;;;;;;28.87;21.70;;;16.10;94.80;;;;;;5002906;28;20201;-68
2023/04/24 05:45:55;;;;;;;28.43;21.17;;;16.20;94.90;;;;;;5005835;28;20670;-68
2023/04/24 05:48:22;;;;;;;31.20;21.37;;;16.20;95.00;;;;;;5006234;28;20263;-68
2023/04/24 05:50:49;;;;;;;28.83;21.93;;;16.20;95.00;;;;;;5004615;28;20526;-68
2023/04/24 05:53:16;;;;;;;28.50;20.97;;;16.20;95.00;;;;;;5009706;28;20262;-69
2023/04/24 05:55:44;;;;;;;25.33;19.40;;;16.20;95.00;;;;;;5006609;28;20199;-68
2023/04/24 05:58:12;;;;;;;29.43;21.37;;;16.20;95.00;;;;;;5000731;28;20208;-68
2023/04/24 06:00:43;;;;;;;27.97;19.37;;;16.20;95.00;;;;;;5010132;28;20258;-68
2023/04/24 06:03:11;;;;;;;23.73;18.00;;;16.20;95.00;;;;;;5025443;28;20216;-68
2023/04/24 06:05:38;;;;;;;24.03;17.57;;;16.20;95.00;;;;;;5006128;28;20212;-69
2023/04/24 06:08:06;;;;;;;21.80;17.37;;;16.20;94.90;;;;;;5008022;28;20223;-68
2023/04/24 06:10:37;;;;;;;22.10;17.97;;;16.20;94.90;;;;;;5023651;28;20200;-68
2023/04/24 06:13:06;;;;;;;20.10;17.33;;;16.30;95.00;;;;;;5040461;28;20227;-68
2023/04/24 06:15:35;;;;;;;24.13;18.20;;;16.30;95.00;;;;;;5019845;28;20203;-68
2023/04/24 06:18:06;;;;;;;22.40;17.17;;;16.30;95.00;;;;;;5043385;28;20217;-68
2023/04/24 06:20:34;;;;;;;18.07;16.23;;;16.40;95.30;;;;;;5006990;28;20265;-68
2023/04/24 06:23:01;;;;;;;22.93;17.60;;;16.40;94.90;;;;;;5007916;28;21024;-68
2023/04/24 06:25:28;;;;;;;22.13;16.67;;;16.40;94.80;;;;;;5031007;28;20200;-68
2023/04/24 06:27:56;;;;;;;23.07;17.83;;;16.50;94.80;;;;;;5033762;28;20201;-68
2023/04/24 06:30:23;;;;;;;19.97;16.87;;;16.60;94.80;;;;;;5000088;28;20260;-68
2023/04/24 06:32:50;;;;;;;19.60;16.53;;;16.60;94.80;;;;;;5004345;28;20746;-69
2023/04/24 06:35:18;;;;;;;21.67;16.00;;;16.70;94.70;;;;;;5004799;28;20208;-68
2023/04/24 06:37:46;;;;;;;20.90;15.50;;;16.70;94.60;;;;;;5006239;28;20213;-69
2023/04/24 06:40:13;;;;;;;22.23;17.43;;;16.80;94.50;;;;;;5006589;28;20231;-68
2023/04/24 06:42:40;;;;;;;18.90;15.47;;;16.80;94.40;;;;;;5003038;28;20265;-69
2023/04/24 06:45:08;;;;;;;19.40;16.10;;;16.90;94.30;;;;;;5007653;28;20533;-68
2023/04/24 06:47:35;;;;;;;25.70;18.10;;;17.00;94.30;;;;;;5004716;28;20654;-68
2023/04/24 06:50:02;;;;;;;20.97;17.33;;;17.00;94.30;;;;;;5002642;28;20188;-70
2023/04/24 06:52:32;;;;;;;19.53;15.93;;;17.10;94.30;;;;;;5004654;28;20621;-68
2023/04/24 06:55:03;;;;;;;18.57;15.10;;;17.20;94.30;;;;;;5008280;28;20203;-68
2023/04/24 06:57:31;;;;;;;17.50;15.23;;;17.30;94.20;;;;;;4997499;28;20259;-68
2023/04/24 06:59:58;;;;;;;22.23;16.07;;;17.40;94.10;;;;;;5009717;28;20199;-69
2023/04/24 07:02:25;;;;;;;20.53;16.00;;;17.50;93.90;;;;;;5007674;28;20198;-68
2023/04/24 07:04:52;;;;;;;20.70;16.07;;;17.60;93.80;;;;;;5010772;28;20262;-69
2023/04/24 07:07:20;;;;;;;19.13;14.43;;;17.60;93.60;;;;;;5009637;28;20210;-69
2023/04/24 07:09:50;;;;;;;16.90;15.10;;;17.70;93.40;;;;;;5003039;28;20498;-68
2023/04/24 07:12:20;;;;;;;20.73;16.27;;;17.70;93.20;;;;;;5009154;28;20202;-68
2023/04/24 07:14:47;;;;;;;17.80;15.43;;;17.70;93.20;;;;;;5004788;28;20199;-68
2023/04/24 07:17:15;;;;;;;18.70;15.40;;;17.70;93.10;;;;;;5009530;28;20222;-69
2023/04/24 07:19:42;;;;;;;22.10;16.10;;;17.70;93.10;;;;;;5015078;28;20203;-70
2023/04/24 07:22:11;;;;;;;19.87;16.67;;;17.80;93.20;;;;;;5005401;28;20269;-69
2023/04/24 07:24:38;;;;;;;18.33;16.33;;;17.90;93.30;;;;;;5007513;28;20237;-68
2023/04/24 07:27:05;;;;;;;21.43;16.83;;;18.10;93.20;;;;;;5009145;28;20265;-69
2023/04/24 07:29:32;;;;;;;19.43;16.43;;;18.20;93.00;;;;;;5008598;28;20206;-70
2023/04/24 07:31:59;;;;;;;18.50;15.67;;;18.30;92.80;;;;;;5004498;28;20295;-68
2023/04/24 07:34:29;;;;;;;20.87;15.87;;;18.40;92.70;;;;;;5003311;28;20299;-68
2023/04/24 07:36:57;;;;;;;16.60;14.67;;;18.60;92.60;;;;;;5008647;28;20588;-69
2023/04/24 07:39:24;;;;;;;18.13;15.83;;;18.70;92.30;;;;;;5010919;28;20245;-68
2023/04/24 07:41:51;;;;;;;17.60;15.03;;;19.00;92.10;;;;;;5015599;28;20230;-68
2023/04/24 07:44:18;;;;;;;18.00;14.33;;;19.10;91.70;;;;;;5009381;28;20195;-69
2023/04/24 07:46:45;;;;;;;17.90;13.60;;;19.20;91.40;;;;;;5005692;28;20282;-69
2023/04/24 07:49:12;;;;;;;16.07;14.23;;;19.20;90.90;;;;;;5012088;28;20269;-69
2023/04/24 07:51:41;;;;;;;14.27;12.73;;;19.30;90.50;;;;;;5006508;28;20226;-69
2023/04/24 07:54:09;;;;;;;15.17;13.40;;;19.30;90.30;;;;;;5010076;28;20220;-69
2023/04/24 07:56:38;;;;;;;17.23;14.80;;;19.30;90.20;;;;;;5003919;28;20398;-69
2023/04/24 07:59:06;;;;;;;18.30;14.77;;;19.40;90.20;;;;;;5006493;28;20215;-69
2023/04/24 08:01:33;;;;;;;21.10;16.57;;;19.40;90.20;;;;;;5005968;28;20192;-72
2023/04/24 08:04:00;;;;;;;19.77;16.00;;;19.40;90.10;;;;;;5006671;28;20613;-69
2023/04/24 08:06:30;;;;;;;17.83;15.90;;;19.40;90.10;;;;;;5012519;28;20206;-68
2023/04/24 08:08:58;;;;;;;17.60;15.70;;;19.50;90.10;;;;;;5012320;28;20668;-69
2023/04/24 08:11:25;;;;;;;17.03;14.40;;;19.50;90.00;;;;;;5004517;28;20658;-69
2023/04/24 08:13:52;;;;;;;16.30;14.43;;;19.50;89.90;;;;;;5013095;28;20241;-70
2023/04/24 08:16:19;;;;;;;16.43;12.83;;;19.50;89.80;;;;;;5001642;28;20215;-72
2023/04/24 08:18:46;;;;;;;14.43;12.93;;;19.40;88.10;;;;;;5011269;28;20692;-69
2023/04/24 08:21:16;;;;;;;12.43;11.23;;;19.30;87.60;;;;;;5000398;28;20226;-69
2023/04/24 08:23:44;;;;;;;10.43;9.10;;;19.20;87.20;;;;;;5020365;28;20626;-69
2023/04/24 08:26:12;;;;;;;12.03;9.70;;;19.00;84.60;;;;;;5011159;28;20226;-69
2023/04/24 08:28:39;;;;;;;10.57;9.10;;;18.80;84.60;;;;;;5009421;28;20974;-69
2023/04/24 08:31:06;;;;;;;11.63;10.20;;;18.70;85.30;;;;;;5011227;28;20204;-69
2023/04/24 08:33:36;;;;;;;11.90;10.63;;;18.50;85.70;;;;;;5012020;28;20238;-69
2023/04/24 08:36:05;;;;;;;14.10;12.23;;;18.40;85.90;;;;;;5014720;28;20210;-71
2023/04/24 08:38:33;;;;;;;18.53;13.63;;;18.30;86.70;;;;;;4998763;28;20199;-69
2023/04/24 08:41:01;;;;;;;12.27;10.93;;;18.30;87.50;;;;;;5005176;28;20694;-69
2023/04/24 08:43:28;;;;;;;12.83;10.73;;;18.30;88.50;;;;;;5006297;28;20234;-69
2023/04/24 08:45:56;;;;;;;13.57;11.33;;;18.30;88.00;;;;;;5005426;28;20244;-69
2023/04/24 08:48:24;;;;;;;15.60;10.60;;;18.30;88.30;;;;;;5012633;28;20707;-69
2023/04/24 08:50:59;;;;;;;14.77;10.43;;;18.30;88.50;;;;;;5009341;28;20207;-69
2023/04/24 08:53:26;;;;;;;12.93;10.17;;;18.30;88.90;;;;;;5008664;28;20254;-69
2023/04/24 08:55:56;;;;;;;10.57;8.73;;;18.40;89.10;;;;;;5004155;28;20286;-69
2023/04/24 08:58:26;;;;;;;10.63;8.97;;;18.40;88.10;;;;;;5007157;28;20223;-68
2023/04/24 09:00:57;;;;;;;10.97;9.87;;;18.30;88.40;;;;;;5006289;28;20213;-69
2023/04/24 09:03:26;;;;;;;9.80;8.80;;;18.20;88.50;;;;;;5007776;28;20213;-69
2023/04/24 09:05:55;;;;;;;10.50;9.33;;;18.10;88.40;;;;;;5001619;28;20289;-68
2023/04/24 09:08:25;;;;;;;16.83;11.50;;;18.00;89.40;;;;;;5000351;28;20229;-67
2023/04/24 09:10:52;;;;;;;12.97;11.40;;;17.80;90.40;;;;;;5000533;28;20218;-66
2023/04/24 09:13:22;;;;;;;15.40;11.67;;;17.60;90.80;;;;;;5005227;28;20235;-66
2023/04/24 09:15:50;;;;;;;20.00;11.10;;;17.30;91.20;;;;;;5000014;28;20201;-66
2023/04/24 09:18:19;;;;;;;12.87;11.47;;;17.20;91.70;;;;;;5006192;28;20250;-65
2023/04/24 09:21:04;;;;;;;14.67;10.97;;;17.10;92.10;;;;;;5004336;28;20198;-66
2023/04/24 09:23:32;;;;;;;17.63;11.93;;;17.00;92.40;;;;;;5003161;28;20604;-65
2023/04/24 09:26:01;;;;;;;12.67;11.37;;;17.00;92.60;;;;;;5000852;28;20204;-66
2023/04/24 09:28:32;;;;;;;14.70;12.63;;;16.90;92.80;;;;;;5007248;28;20212;-66
2023/04/24 09:31:15;;;;;;;15.77;12.13;;;16.90;93.00;;;;;;5002737;28;20199;-66
2023/04/24 09:33:55;;;;;;;15.07;11.30;;;16.80;93.40;;;;;;5006821;28;20228;-66
2023/04/24 09:36:37;;;;;;;14.57;11.03;;;16.90;93.70;;;;;;5004921;28;20668;-66
2023/04/24 09:39:10;;;;;;;13.63;10.60;;;16.90;93.80;;;;;;5002281;28;20201;-66
2023/04/24 09:41:57;;;;;;;13.37;10.27;;;16.90;93.90;;;;;;5005104;28;20216;-66
2023/04/24 09:44:26;;;;;;;12.63;9.73;;;16.90;94.00;;;;;;5007522;28;20205;-66
2023/04/24 09:46:57;;;;;;;13.37;10.00;;;17.00;94.10;;;;;;5003809;28;20260;-67
2023/04/24 09:49:34;;;;;;;12.13;9.73;;;17.00;94.20;;;;;;5003112;28;20198;-66
2023/04/24 09:52:11;;;;;;;10.17;9.07;;;17.10;94.30;;;;;;5006706;28;20206;-66
2023/04/24 09:54:39;;;;;;;11.73;9.10;;;17.30;94.40;;;;;;5000338;28;20249;-66
2023/04/24 09:57:09;;;;;;;12.97;10.07;;;17.40;94.30;;;;;;5001885;28;20200;-67
2023/04/24 09:59:43;;;;;;;10.40;9.30;;;17.50;94.30;;;;;;5007866;28;20212;-68
2023/04/24 10:02:20;;;;;;;10.23;8.13;;;17.60;94.30;;;;;;5004322;28;20201;-67
2023/04/24 10:04:56;;;;;;;8.87;7.97;;;17.80;94.30;;;;;;5003818;28;20702;-68
2023/04/24 10:07:26;;;;;;;9.13;6.33;;;18.00;94.20;;;;;;5000712;28;20211;-67
2023/04/24 10:09:53;;;;;;;7.67;5.93;;;18.20;94.10;;;;;;5001843;28;20596;-68
2023/04/24 10:12:21;;;;;;;5.33;4.70;;;18.50;94.20;;;;;;5008822;28;20496;-68
2023/04/24 10:14:49;;;;;;;7.53;4.97;;;18.90;93.60;;;;;;5005768;28;20256;-67
2023/04/24 10:17:17;;;;;;;4.93;4.23;;;19.20;93.10;;;;;;5000908;28;20194;-67
2023/04/24 10:19:46;;;;;;;4.00;3.57;;;19.60;92.20;;;;;;5006043;28;20204;-68
2023/04/24 10:22:16;;;;;;;3.30;2.57;;;20.00;91.50;;;;;;5004549;28;20203;-68
2023/04/24 10:24:45;;;;;;;5.13;3.47;;;20.30;90.70;;;;;;5003500;28;20207;-68
2023/04/24 10:27:15;;;;;;;3.43;2.70;;;20.50;89.80;;;;;;5009324;28;20216;-68
2023/04/24 10:29:44;;;;;;;4.17;2.40;;;20.60;88.70;;;;;;5002096;28;20200;-67
2023/04/24 10:32:11;;;;;;;3.93;2.60;;;20.80;87.50;;;;;;5007458;28;20213;-68
2023/04/24 10:34:38;;;;;;;5.53;3.13;;;20.90;86.60;;;;;;5009954;28;20653;-68
2023/04/24 10:37:05;;;;;;;3.60;3.30;;;21.10;86.40;;;;;;5008761;28;20215;-68
2023/04/24 10:39:33;;;;;;;5.33;3.77;;;21.30;85.90;;;;;;5006666;28;20259;-69
2023/04/24 10:42:00;;;;;;;4.63;3.80;;;21.50;84.70;;;;;;5020411;28;20304;-68
2023/04/24 10:44:36;;;;;;;5.13;4.20;;;21.70;82.80;;;;;;5007763;28;20204;-69
2023/04/24 10:47:03;;;;;;;6.37;3.93;;;21.80;81.30;;;;;;5007865;28;20240;-68
2023/04/24 10:49:32;;;;;;;4.70;4.30;;;21.80;79.70;;;;;;5013034;28;20208;-68
2023/04/24 10:52:05;;;;;;;6.73;4.27;;;21.90;79.20;;;;;;5016604;28;20208;-68
2023/04/24 10:54:43;;;;;;;6.00;4.30;;;22.00;77.70;;;;;;5011198;28;20211;-69
2023/04/24 10:57:19;;;;;;;5.13;4.63;;;21.90;78.80;;;;;;5043613;28;20200;-68
2023/04/24 10:59:48;;;;;;;8.30;5.33;;;22.10;78.40;;;;;;5007924;28;20206;-69
2023/04/24 11:02:15;;;;;;;6.90;4.93;;;22.10;79.10;;;;;;5010684;28;20456;-68
2023/04/24 11:04:43;;;;;;;5.90;5.30;;;22.30;79.50;;;;;;5004622;28;20291;-68
2023/04/24 11:07:11;;;;;;;6.90;5.07;;;22.40;79.50;;;;;;5004376;28;20204;-68
2023/04/24 11:09:41;;;;;;;9.77;5.43;;;22.60;77.20;;;;;;5007130;28;20857;-69
2023/04/24 11:12:10;;;;;;;5.97;5.47;;;22.60;76.30;;;;;;5005312;28;20251;-68
2023/04/24 11:14:56;;;;;;;7.17;5.63;;;22.60;77.80;;;;;;5001677;28;20217;-68
2023/04/24 11:17:39;;;;;;;7.07;5.83;;;22.70;78.10;;;;;;5007869;28;20196;-69
2023/04/24 11:20:17;;;;;;;6.93;6.20;;;22.90;77.80;;;;;;5003695;28;20193;-68
2023/04/24 11:22:55;;;;;;;8.60;6.47;;;23.00;77.40;;;;;;5012467;28;20200;-68
2023/04/24 11:25:22;;;;;;;7.33;6.63;;;23.10;76.60;;;;;;5004801;28;20204;-71
2023/04/24 11:27:50;;;;;;;7.50;6.63;;;23.20;75.00;;;;;;5006639;28;20231;-68
2023/04/24 11:30:19;;;;;;;8.20;6.47;;;23.30;73.90;;;;;;5008119;28;20287;-68
2023/04/24 11:32:51;;;;;;;9.43;6.80;;;23.40;74.90;;;;;;5014767;28;20211;-70
2023/04/24 11:35:21;;;;;;;10.17;6.90;;;23.30;74.40;;;;;;5002464;28;20220;-68
2023/04/24 11:37:49;;;;;;;8.33;6.73;;;23.30;74.50;;;;;;4999048;28;20255;-68
2023/04/24 11:40:22;;;;;;;8.57;7.17;;;23.50;74.50;;;;;;5006859;28;20204;-69
2023/04/24 11:42:51;;;;;;;7.13;6.00;;;23.50;73.80;;;;;;5013359;28;20660;-68
2023/04/24 11:45:22;;;;;;;9.83;6.80;;;23.50;74.70;;;;;;5011185;28;20247;-68
2023/04/24 11:47:50;;;;;;;8.53;7.57;;;23.60;75.60;;;;;;5011331;28;20236;-68
2023/04/24 11:50:19;;;;;;;9.40;7.63;;;23.80;74.50;;;;;;5001747;28;20209;-68
2023/04/24 11:52:47;;;;;;;8.20;7.23;;;23.80;72.80;;;;;;5004882;28;20641;-70
2023/04/24 11:55:14;;;;;;;10.57;7.63;;;23.70;72.10;;;;;;5011301;28;20255;-68
2023/04/24 11:57:50;;;;;;;9.50;7.90;;;23.50;70.80;;;;;;5002798;28;20639;-68
2023/04/24 12:00:18;;;;;;;8.47;7.60;;;23.20;72.70;;;;;;5012586;28;20282;-68
2023/04/24 12:02:46;;;;;;;8.70;6.97;;;23.10;74.00;;;;;;5009355;28;20271;-74
2023/04/24 12:05:27;;;;;;;9.43;7.30;;;22.90;74.10;;;;;;5003944;28;20212;-68
2023/04/24 12:07:54;;;;;;;8.10;7.40;;;22.90;74.60;;;;;;5006659;28;20204;-69
2023/04/24 12:10:23;;;;;;;8.33;7.20;;;23.00;74.70;;;;;;5009203;28;20207;-68
2023/04/24 12:12:51;;;;;;;7.13;6.17;;;23.20;73.90;;;;;;5013362;28;20203;-68
2023/04/24 12:15:20;;;;;;;8.30;7.27;;;23.40;73.80;;;;;;5007672;28;20232;-68
2023/04/24 12:17:47;;;;;;;9.00;6.80;;;23.60;72.00;;;;;;5012810;28;20254;-70
2023/04/24 12:20:15;;;;;;;9.53;7.10;;;23.80;71.10;;;;;;5012168;28;20188;-69
2023/04/24 12:22:50;;;;;;;7.67;6.00;;;23.90;71.60;;;;;;5007867;28;20204;-69
2023/04/24 12:25:18;;;;;;;6.93;6.23;;;24.10;71.00;;;;;;5005062;28;20204;-69
2023/04/24 12:27:47;;;;;;;6.97;5.60;;;24.30;68.60;;;;;;5006034;28;20205;-70
2023/04/24 12:30:16;;;;;;;6.60;6.00;;;24.30;68.20;;;;;;5001105;28;20216;-69
2023/04/24 12:32:45;;;;;;;7.63;6.37;;;24.30;68.80;;;;;;5007693;28;20286;-69
2023/04/24 12:35:13;;;;;;;8.33;6.83;;;24.40;68.40;;;;;;5000282;28;20204;-69
2023/04/24 12:37:43;;;;;;;7.40;6.40;;;24.40;68.50;;;;;;5010957;28;20291;-69
2023/04/24 12:40:13;;;;;;;8.07;6.70;;;24.30;68.50;;;;;;5004986;28;20271;-69
2023/04/24 12:42:45;;;;;;;7.07;6.33;;;24.30;68.20;;;;;;5004199;28;20296;-69
2023/04/24 12:45:13;;;;;;;5.70;5.20;;;24.20;67.30;;;;;;5007086;28;20252;-70
2023/04/24 12:47:42;;;;;;;7.03;5.00;;;24.20;66.70;;;;;;5003038;28;20287;-69
2023/04/24 12:50:11;;;;;;;6.87;4.93;;;24.20;67.50;;;;;;5011088;28;20704;-71